Time;durP1;ratioP1;P1;durP2;ratioP2;P2;SDS_P1;SDS_P2;PMS_P1;PMS_P2;Temp;Humidity;BMP_temperature;BMP_pressure;BME280_temperature;BME280_humidity;BME280_pressure;Samples;Min_cycle;Max_cycle;Signal;HPM_P1;HPM_P2
2023/10/22 07:20:29;;;;;;;28.38;21.67;;;23.30;99.90;;;;;;5335989;23;20116;-90
2023/10/22 07:22:58;;;;;;;31.15;21.52;;;23.40;99.90;;;;;;4914669;29;20028;-90
2023/10/22 07:25:33;;;;;;;34.85;21.48;;;23.50;99.90;;;;;;4911598;29;20036;-90
2023/10/22 07:28:05;;;;;;;33.08;22.15;;;23.60;99.90;;;;;;4915079;29;20036;-89
2023/10/22 07:30:36;;;;;;;31.83;21.88;;;23.90;99.90;;;;;;4911824;29;20035;-88
2023/10/22 07:33:04;;;;;;;32.95;22.02;;;24.40;99.90;;;;;;4886685;29;20504;-86
2023/10/22 07:35:34;;;;;;;36.60;22.38;;;24.50;99.90;;;;;;4903149;29;20111;-91
2023/10/22 07:38:01;;;;;;;32.53;22.60;;;24.60;99.90;;;;;;4903211;29;20048;-90
2023/10/22 07:40:27;;;;;;;37.85;22.75;;;24.50;99.90;;;;;;4887545;29;20028;-91
2023/10/22 07:42:57;;;;;;;25.27;21.80;;;24.70;99.90;;;;;;4902802;29;20485;-90
2023/10/22 07:45:23;;;;;;;38.85;22.92;;;24.90;99.90;;;;;;4888481;29;20477;-91
2023/10/22 07:47:50;;;;;;;27.95;21.90;;;24.60;99.90;;;;;;4889576;29;20036;-91
2023/10/22 07:50:16;;;;;;;36.13;25.77;;;24.50;99.90;;;;;;4883984;29;20040;-87
2023/10/22 07:52:43;;;;;;;32.00;25.33;;;24.50;99.90;;;;;;4883480;29;20056;-86
2023/10/22 07:55:10;;;;;;;34.17;25.70;;;24.40;99.90;;;;;;4899306;29;20040;-86
2023/10/22 07:57:36;;;;;;;33.72;26.20;;;24.50;99.90;;;;;;4883523;29;20502;-91
2023/10/22 08:00:03;;;;;;;29.27;26.10;;;24.50;99.90;;;;;;4889310;29;20024;-85
2023/10/22 08:02:38;;;;;;;32.72;25.77;;;24.60;99.90;;;;;;4902197;29;20044;-85
2023/10/22 08:05:05;;;;;;;39.50;23.35;;;24.70;99.90;;;;;;4901729;29;20536;-85
2023/10/22 08:07:33;;;;;;;29.13;26.17;;;24.90;99.90;;;;;;4901621;29;20036;-87
2023/10/22 08:10:00;;;;;;;29.92;25.70;;;24.90;99.90;;;;;;4896035;29;20486;-89
2023/10/22 08:12:26;;;;;;;26.50;23.13;;;25.00;99.90;;;;;;4883221;29;20028;-89
2023/10/22 08:14:53;;;;;;;30.38;23.55;;;25.10;99.90;;;;;;4870988;29;20068;-86
2023/10/22 08:17:19;;;;;;;30.77;24.52;;;25.30;99.90;;;;;;4918282;29;20119;-86
2023/10/22 08:19:46;;;;;;;30.65;26.83;;;25.20;99.90;;;;;;4918213;29;20048;-86
2023/10/22 08:22:12;;;;;;;31.58;23.33;;;25.20;99.90;;;;;;4917352;29;20032;-85
2023/10/22 08:24:38;;;;;;;27.13;23.77;;;25.30;99.90;;;;;;4902008;29;20040;-88
2023/10/22 08:27:05;;;;;;;28.15;24.08;;;25.20;99.90;;;;;;4903892;29;20024;-90
2023/10/22 08:29:32;;;;;;;30.38;27.23;;;25.10;99.90;;;;;;4903670;29;20508;-90
2023/10/22 08:31:58;;;;;;;34.22;26.83;;;25.10;99.90;;;;;;4886176;29;20089;-90
2023/10/22 08:34:24;;;;;;;30.90;26.58;;;25.00;99.90;;;;;;4902425;29;20032;-91
2023/10/22 08:36:51;;;;;;;27.90;24.77;;;25.10;99.90;;;;;;4902449;29;20115;-90
2023/10/22 08:39:18;;;;;;;32.30;24.05;;;25.20;99.90;;;;;;4886789;29;20044;-90
2023/10/22 08:41:55;;;;;;;28.45;25.08;;;25.20;99.90;;;;;;4887138;29;20539;-87
2023/10/22 08:44:22;;;;;;;30.40;26.92;;;25.20;99.90;;;;;;4885868;29;20454;-89
2023/10/22 08:46:49;;;;;;;33.53;28.00;;;25.30;99.90;;;;;;4886700;29;20028;-89
2023/10/22 08:49:17;;;;;;;29.67;26.75;;;25.40;99.90;;;;;;4886845;29;20105;-88
2023/10/22 08:51:43;;;;;;;28.48;24.48;;;25.60;99.90;;;;;;4902021;29;20084;-88
2023/10/22 08:54:10;;;;;;;31.08;23.50;;;25.90;99.90;;;;;;4902241;29;20032;-89
2023/10/22 08:56:36;;;;;;;29.20;23.85;;;26.00;99.90;;;;;;4902022;29;20047;-90
2023/10/22 08:59:04;;;;;;;27.90;23.63;;;26.20;99.90;;;;;;4886985;29;20071;-89
2023/10/22 09:01:30;;;;;;;27.02;24.27;;;25.90;99.90;;;;;;4887342;29;20091;-89
2023/10/22 09:03:57;;;;;;;25.83;23.10;;;25.90;99.90;;;;;;4886791;29;20114;-91
2023/10/22 09:06:23;;;;;;;26.70;23.95;;;26.00;99.90;;;;;;4886180;29;20028;-90
2023/10/22 09:08:52;;;;;;;27.15;24.80;;;26.00;99.90;;;;;;4886420;29;20044;-89
2023/10/22 09:11:20;;;;;;;27.10;24.38;;;25.90;99.90;;;;;;4901851;29;20119;-91
2023/10/22 09:13:49;;;;;;;26.52;23.88;;;25.90;99.90;;;;;;4886508;29;20090;-89
2023/10/22 09:16:37;;;;;;;26.50;24.00;;;26.00;99.90;;;;;;4886586;29;20119;-90
2023/10/22 09:19:04;;;;;;;27.02;24.83;;;26.20;99.90;;;;;;4886282;29;20497;-90
2023/10/22 09:21:44;;;;;;;27.25;24.42;;;26.10;99.90;;;;;;4881275;29;20057;-89
2023/10/22 09:24:11;;;;;;;27.08;24.95;;;26.10;99.90;;;;;;4895479;29;20044;-89
2023/10/22 09:26:49;;;;;;;27.75;25.08;;;26.20;99.90;;;;;;4864114;29;20032;-89
2023/10/22 09:29:16;;;;;;;27.08;24.70;;;26.20;99.90;;;;;;4879009;29;20550;-90
2023/10/22 09:31:51;;;;;;;28.67;26.10;;;26.20;99.90;;;;;;4879792;29;20510;-89
2023/10/22 09:34:28;;;;;;;27.58;24.77;;;26.20;99.90;;;;;;4889304;29;20029;-89
2023/10/22 09:36:55;;;;;;;27.10;24.83;;;26.40;99.90;;;;;;4879522;29;20033;-91
2023/10/22 09:39:43;;;;;;;27.02;25.13;;;26.40;99.90;;;;;;4864415;29;20041;-88
2023/10/22 09:42:12;;;;;;;28.35;26.10;;;26.40;99.90;;;;;;4862733;29;20033;-89
2023/10/22 09:44:46;;;;;;;28.80;25.88;;;26.50;99.90;;;;;;4861207;29;20026;-88
2023/10/22 09:47:20;;;;;;;28.58;26.27;;;26.40;99.90;;;;;;4864332;29;20080;-88
2023/10/22 09:49:55;;;;;;;29.05;26.70;;;26.60;99.90;;;;;;4879492;29;20116;-90
2023/10/22 09:52:25;;;;;;;29.23;26.67;;;26.70;99.90;;;;;;4880064;29;20029;-90
2023/10/22 09:54:54;;;;;;;27.90;25.38;;;26.70;99.90;;;;;;4879926;29;20112;-89
2023/10/22 09:57:29;;;;;;;27.73;25.73;;;26.70;99.90;;;;;;4879436;29;20025;-89
2023/10/22 10:00:04;;;;;;;27.95;25.90;;;26.90;99.90;;;;;;4879244;29;20040;-90
2023/10/22 10:02:34;;;;;;;29.65;27.02;;;26.80;99.90;;;;;;4879625;29;20045;-89
2023/10/22 10:05:12;;;;;;;28.55;26.10;;;26.70;99.90;;;;;;4879179;29;20153;-88
2023/10/22 10:07:39;;;;;;;;;;;26.60;99.90;;;;;;4880013;29;20036;-88
2023/10/22 10:10:07;;;;;;;28.70;26.02;;;26.70;99.90;;;;;;4879407;29;19907;-88
2023/10/22 10:12:40;;;;;;;28.48;26.05;;;26.70;99.90;;;;;;4880432;29;20130;-90
2023/10/22 10:15:07;;;;;;;28.20;25.60;;;26.50;99.90;;;;;;4879500;29;20410;-90
2023/10/22 10:17:54;;;;;;;28.40;26.00;;;26.60;99.90;;;;;;4878940;29;20463;-90
2023/10/22 10:20:32;;;;;;;29.50;26.13;;;26.40;99.90;;;;;;4890258;29;20052;-90
2023/10/22 10:23:08;;;;;;;28.75;26.05;;;26.30;99.90;;;;;;4897927;29;20033;-89
2023/10/22 10:25:41;;;;;;;27.95;25.50;;;26.50;99.90;;;;;;4898165;29;20390;-89
2023/10/22 10:28:09;;;;;;;29.03;26.13;;;26.70;99.90;;;;;;4898201;29;20044;-88
2023/10/22 10:30:37;;;;;;;29.55;26.50;;;26.80;99.90;;;;;;4897954;29;20032;-89
2023/10/22 10:33:03;;;;;;;29.08;26.40;;;27.00;99.90;;;;;;4895934;29;20040;-89
2023/10/22 10:35:42;;;;;;;28.83;26.08;;;26.80;99.90;;;;;;4900696;29;20028;-90
2023/10/22 10:38:15;;;;;;;28.15;25.67;;;26.80;99.90;;;;;;4900749;29;20040;-88
2023/10/22 10:41:02;;;;;;;28.45;26.08;;;26.70;99.90;;;;;;4900862;29;20371;-89
2023/10/22 10:44:08;;;;;;;28.73;26.08;;;26.60;99.90;;;;;;4901097;29;20024;-90
2023/10/22 10:46:35;;;;;;;28.20;25.67;;;26.60;99.90;;;;;;4879381;29;20043;-90
2023/10/22 10:49:04;;;;;;;28.70;26.20;;;26.40;99.90;;;;;;4900505;29;20028;-90
2023/10/22 10:51:31;;;;;;;28.27;25.83;;;26.60;99.90;;;;;;4900619;29;20087;-88
2023/10/22 10:54:03;;;;;;;29.55;27.33;;;26.60;99.90;;;;;;4900694;29;20087;-90
2023/10/22 10:56:55;;;;;;;30.10;27.48;;;26.60;99.90;;;;;;4916475;29;20060;-89
2023/10/22 10:59:36;;;;;;;29.27;26.48;;;26.70;99.90;;;;;;4885314;29;20051;-90
2023/10/22 11:02:07;;;;;;;29.05;26.65;;;26.70;99.90;;;;;;4904413;29;20040;-90
2023/10/22 11:04:36;;;;;;;29.67;27.27;;;26.70;99.90;;;;;;4889370;29;20039;-88
2023/10/22 11:07:03;;;;;;;29.88;27.35;;;26.80;99.90;;;;;;4885713;29;20020;-90
2023/10/22 11:09:33;;;;;;;29.52;26.88;;;26.80;99.90;;;;;;4888512;29;20036;-90
2023/10/22 11:12:06;;;;;;;29.25;27.00;;;26.90;99.90;;;;;;4888506;29;20038;-90
2023/10/22 11:14:35;;;;;;;29.02;26.70;;;26.90;99.90;;;;;;4904116;29;20032;-89
2023/10/22 11:17:02;;;;;;;28.75;26.67;;;26.90;99.90;;;;;;4891352;29;20020;-90
2023/10/22 11:19:30;;;;;;;28.80;26.70;;;27.00;99.90;;;;;;4911891;29;20087;-87
2023/10/22 11:21:57;;;;;;;30.63;28.25;;;27.10;99.90;;;;;;4895122;29;20091;-87
2023/10/22 11:24:28;;;;;;;29.27;27.05;;;27.20;99.90;;;;;;4895516;29;20048;-86
2023/10/22 11:27:05;;;;;;;29.27;26.73;;;27.30;99.90;;;;;;4891793;29;20062;-84
2023/10/22 11:29:49;;;;;;;29.05;26.85;;;27.10;99.90;;;;;;4929713;29;20055;-87
2023/10/22 11:32:19;;;;;;;;;;;27.20;99.90;;;;;;4901655;29;20040;-89
2023/10/22 11:35:00;;;;;;;29.13;27.13;;;27.20;99.90;;;;;;4885575;29;19919;-91
2023/10/22 11:37:42;;;;;;;29.30;26.85;;;27.10;99.90;;;;;;4900486;29;20107;-92
2023/10/22 11:40:24;;;;;;;30.10;27.67;;;27.00;99.90;;;;;;4891267;29;20497;-92
2023/10/22 11:42:52;;;;;;;29.67;27.33;;;26.90;99.90;;;;;;4903463;29;20119;-90
2023/10/22 11:45:19;;;;;;;29.45;27.25;;;26.80;99.90;;;;;;4887415;29;20024;-86
2023/10/22 11:47:46;;;;;;;29.90;27.80;;;26.90;99.90;;;;;;4887769;29;20042;-89
2023/10/22 11:50:15;;;;;;;29.65;27.45;;;26.90;99.90;;;;;;4888277;29;20024;-89
2023/10/22 11:52:52;;;;;;;30.23;27.73;;;26.80;99.90;;;;;;4903132;29;20067;-91
2023/10/22 11:55:19;;;;;;;30.23;27.90;;;26.80;99.90;;;;;;4903161;29;20478;-92
2023/10/22 11:57:46;;;;;;;30.38;28.27;;;26.70;99.90;;;;;;4887731;29;20039;-90
2023/10/22 12:00:14;;;;;;;29.38;27.35;;;26.70;99.90;;;;;;4899940;29;20402;-89
2023/10/22 12:02:42;;;;;;;30.30;27.60;;;26.90;99.90;;;;;;4884399;29;20025;-90
2023/10/22 12:05:09;;;;;;;29.65;27.40;;;26.80;99.90;;;;;;4899905;29;20036;-91
2023/10/22 12:07:39;;;;;;;30.15;27.50;;;26.80;99.90;;;;;;4884363;29;20040;-93
2023/10/22 12:10:06;;;;;;;30.88;28.45;;;26.90;99.90;;;;;;4900062;29;20033;-90
2023/10/22 12:12:35;;;;;;;30.30;28.00;;;26.80;99.90;;;;;;4884298;29;20141;-91
2023/10/22 12:15:04;;;;;;;29.45;27.08;;;26.90;99.90;;;;;;4869370;29;20047;-93
2023/10/22 12:17:31;;;;;;;28.83;26.38;;;26.80;99.90;;;;;;4884273;29;20036;-93
2023/10/22 12:19:57;;;;;;;29.23;26.80;;;26.70;99.90;;;;;;4899752;29;20093;-93
2023/10/22 12:22:25;;;;;;;28.83;26.48;;;26.60;99.90;;;;;;4884269;29;20052;-90
2023/10/22 12:24:54;;;;;;;28.90;26.77;;;26.60;99.90;;;;;;4901489;29;20033;-91
2023/10/22 12:27:20;;;;;;;28.75;26.33;;;26.60;99.90;;;;;;4884122;29;20135;-91
2023/10/22 12:29:51;;;;;;;28.73;26.67;;;26.60;99.90;;;;;;4899677;29;20060;-93
2023/10/22 12:32:18;;;;;;;28.48;26.35;;;26.70;99.90;;;;;;4901307;29;20036;-92
2023/10/22 12:34:47;;;;;;;28.50;26.33;;;26.70;99.90;;;;;;4888510;29;20502;-91
2023/10/22 12:37:16;;;;;;;28.65;26.38;;;26.70;99.90;;;;;;4899511;29;20028;-91
2023/10/22 12:39:43;;;;;;;30.25;27.73;;;26.60;99.90;;;;;;4884747;29;20035;-92
2023/10/22 12:42:12;;;;;;;29.15;26.55;;;26.60;99.90;;;;;;4903356;29;20515;-92
2023/10/22 12:44:43;;;;;;;29.95;27.30;;;26.50;99.90;;;;;;4887488;29;20032;-93
2023/10/22 12:47:15;;;;;;;30.38;27.75;;;26.50;99.90;;;;;;4902331;29;20070;-89
2023/10/22 12:49:42;;;;;;;29.95;27.85;;;26.60;99.90;;;;;;4901937;29;20037;-91
2023/10/22 12:52:11;;;;;;;30.48;28.05;;;26.60;99.90;;;;;;4887001;29;20429;-89
2023/10/22 12:54:39;;;;;;;30.65;27.92;;;26.70;99.90;;;;;;4902112;29;20489;-89
2023/10/22 12:57:06;;;;;;;28.90;27.00;;;26.70;99.90;;;;;;4886157;29;20025;-89
2023/10/22 12:59:33;;;;;;;30.00;27.33;;;26.70;99.90;;;;;;4901755;29;20039;-89
2023/10/22 13:02:00;;;;;;;30.08;27.70;;;26.50;99.90;;;;;;4886299;29;20040;-86
2023/10/22 13:04:27;;;;;;;30.38;27.88;;;26.60;99.90;;;;;;4902061;29;20032;-87
2023/10/22 13:06:59;;;;;;;30.40;28.25;;;26.60;99.90;;;;;;4900534;29;20031;-86
2023/10/22 13:09:26;;;;;;;30.42;27.95;;;26.50;99.90;;;;;;4917555;29;20048;-84
2023/10/22 13:11:53;;;;;;;30.52;28.10;;;26.50;99.90;;;;;;4885031;29;20362;-83
2023/10/22 13:14:20;;;;;;;31.38;28.70;;;26.40;99.90;;;;;;4900437;29;20062;-88
2023/10/22 13:16:48;;;;;;;30.17;27.92;;;26.30;99.90;;;;;;4885064;29;20028;-87
2023/10/22 13:19:15;;;;;;;31.00;28.55;;;26.30;99.90;;;;;;4917536;29;20040;-85
2023/10/22 13:21:46;;;;;;;31.13;28.77;;;26.30;99.90;;;;;;4880444;29;20077;-88
2023/10/22 13:24:13;;;;;;;31.48;29.27;;;26.20;99.90;;;;;;4875984;29;20067;-88
2023/10/22 13:26:40;;;;;;;31.98;29.55;;;26.10;99.90;;;;;;4860572;29;20029;-85
2023/10/22 13:29:07;;;;;;;31.73;29.23;;;26.10;99.90;;;;;;4861114;29;20033;-88
2023/10/22 13:31:39;;;;;;;31.17;28.88;;;26.00;99.90;;;;;;4875764;29;20033;-83
2023/10/22 13:34:05;;;;;;;32.40;29.67;;;26.10;99.90;;;;;;4860927;29;20038;-88
2023/10/22 13:36:32;;;;;;;30.88;28.48;;;25.90;99.90;;;;;;4862826;29;20026;-90
2023/10/22 13:38:59;;;;;;;31.88;29.13;;;25.80;99.90;;;;;;4879843;29;20502;-91
2023/10/22 13:41:25;;;;;;;31.33;28.80;;;25.60;99.90;;;;;;4879601;29;20025;-90
2023/10/22 13:43:52;;;;;;;29.98;27.50;;;25.70;99.90;;;;;;4879607;29;20406;-89
2023/10/22 13:46:18;;;;;;;29.08;26.83;;;25.60;99.90;;;;;;4882389;29;20025;-92
2023/10/22 13:48:48;;;;;;;29.13;27.20;;;25.60;99.90;;;;;;4867452;29;20060;-92
2023/10/22 13:51:15;;;;;;;31.60;28.98;;;25.70;99.90;;;;;;4880575;29;20503;-91
2023/10/22 13:53:41;;;;;;;28.88;26.70;;;25.60;99.90;;;;;;4879706;29;20029;-91
2023/10/22 13:56:08;;;;;;;29.08;26.55;;;25.80;99.90;;;;;;4879599;29;20486;-89
2023/10/22 13:58:34;;;;;;;28.85;26.58;;;25.90;99.90;;;;;;4879741;29;20465;-89
2023/10/22 14:01:01;;;;;;;28.80;26.45;;;25.80;99.90;;;;;;4879518;29;20031;-87
2023/10/22 14:03:27;;;;;;;28.85;26.35;;;25.80;99.90;;;;;;4879220;29;20036;-89
2023/10/22 14:05:54;;;;;;;27.73;25.73;;;25.50;99.90;;;;;;4879281;29;20033;-88
2023/10/22 14:08:20;;;;;;;28.92;26.30;;;25.40;99.90;;;;;;4879093;29;20132;-89
2023/10/22 14:10:47;;;;;;;27.60;25.20;;;25.30;99.90;;;;;;4879394;29;20025;-89
2023/10/22 14:13:15;;;;;;;27.23;24.98;;;25.20;99.90;;;;;;4894463;29;20487;-90
2023/10/22 14:15:42;;;;;;;27.17;24.85;;;25.10;99.90;;;;;;4863664;29;20032;-90
2023/10/22 14:18:11;;;;;;;27.17;24.98;;;25.10;99.90;;;;;;4895133;29;20033;-92
2023/10/22 14:20:38;;;;;;;27.70;25.50;;;25.00;99.90;;;;;;4879977;29;20049;-86
2023/10/22 14:23:04;;;;;;;26.38;24.48;;;25.00;99.90;;;;;;4880373;29;20029;-90
2023/10/22 14:25:31;;;;;;;26.45;24.27;;;24.90;99.90;;;;;;4863826;29;20029;-91
2023/10/22 14:27:57;;;;;;;26.08;23.92;;;24.90;99.90;;;;;;4879550;29;20033;-91
2023/10/22 14:30:24;;;;;;;26.10;23.67;;;24.90;99.90;;;;;;4879346;29;20555;-91
2023/10/22 14:32:51;;;;;;;26.20;23.85;;;24.80;99.90;;;;;;4894884;29;20037;-90
2023/10/22 14:35:17;;;;;;;26.40;23.90;;;24.90;99.90;;;;;;4880000;29;20093;-91
2023/10/22 14:37:44;;;;;;;26.38;24.13;;;25.00;99.90;;;;;;4899047;29;20045;-92
2023/10/22 14:40:11;;;;;;;26.20;23.80;;;25.00;99.90;;;;;;4880502;29;20033;-90
2023/10/22 14:42:38;;;;;;;27.77;25.17;;;24.90;99.90;;;;;;4896199;29;20040;-91
2023/10/22 14:45:05;;;;;;;26.23;24.33;;;24.90;99.90;;;;;;4866950;29;20600;-90
2023/10/22 14:47:32;;;;;;;26.88;24.73;;;24.90;99.90;;;;;;4897859;29;20052;-91
2023/10/22 14:49:58;;;;;;;29.58;25.48;;;24.80;99.90;;;;;;4882640;29;20033;-90
2023/10/22 14:52:25;;;;;;;26.92;24.80;;;24.80;99.90;;;;;;4881746;29;20089;-87
2023/10/22 14:54:51;;;;;;;26.98;24.48;;;24.70;99.90;;;;;;4881692;29;20474;-87
2023/10/22 14:57:18;;;;;;;26.77;24.33;;;24.50;99.90;;;;;;4897289;29;20029;-87
2023/10/22 14:59:44;;;;;;;27.00;24.85;;;24.50;99.90;;;;;;4866471;29;20684;-86
2023/10/22 15:02:14;;;;;;;27.10;24.98;;;24.30;99.90;;;;;;4883830;29;20461;-86
2023/10/22 15:04:40;;;;;;;27.67;24.90;;;24.30;99.90;;;;;;4865926;29;20033;-86
2023/10/22 15:07:12;;;;;;;26.77;24.42;;;24.30;99.90;;;;;;4866245;29;20031;-86
2023/10/22 15:09:39;;;;;;;26.67;24.70;;;24.20;99.90;;;;;;4881845;29;20466;-86
2023/10/22 15:12:06;;;;;;;26.55;24.25;;;24.10;99.90;;;;;;4878514;29;20117;-86
2023/10/22 15:14:33;;;;;;;27.30;24.77;;;24.10;99.90;;;;;;4881334;29;20042;-86
2023/10/22 15:16:59;;;;;;;27.00;24.80;;;24.00;99.90;;;;;;4881847;29;20204;-85
2023/10/22 15:19:26;;;;;;;26.35;24.20;;;24.00;99.90;;;;;;4898643;29;20127;-86
2023/10/22 15:21:53;;;;;;;26.58;24.30;;;23.90;99.90;;;;;;4887762;29;20032;-86
2023/10/22 15:24:19;;;;;;;26.67;24.60;;;23.70;99.90;;;;;;4905945;29;20092;-86
2023/10/22 15:26:47;;;;;;;26.40;23.90;;;23.70;99.90;;;;;;4894126;29;20084;-86
2023/10/22 15:29:14;;;;;;;26.85;24.40;;;23.60;99.90;;;;;;4908437;29;20036;-86
2023/10/22 15:31:40;;;;;;;26.48;24.35;;;23.60;99.90;;;;;;4902766;29;20486;-88
2023/10/22 15:34:07;;;;;;;26.33;23.65;;;23.50;99.90;;;;;;4903452;29;20032;-88
2023/10/22 15:36:33;;;;;;;27.15;24.63;;;23.30;99.90;;;;;;4888047;29;20478;-90
2023/10/22 15:39:00;;;;;;;26.20;23.73;;;23.10;99.90;;;;;;4902304;29;20421;-82
2023/10/22 15:41:26;;;;;;;27.10;24.88;;;23.00;99.90;;;;;;4908762;29;20115;-82
2023/10/22 15:43:57;;;;;;;27.15;24.77;;;23.00;99.90;;;;;;4900204;29;20025;-82
2023/10/22 15:46:27;;;;;;;27.20;24.80;;;23.00;99.90;;;;;;4898921;29;20169;-81
2023/10/22 15:48:54;;;;;;;27.17;25.00;;;23.00;99.90;;;;;;4900078;29;20056;-81
2023/10/22 15:51:21;;;;;;;26.67;24.33;;;22.90;99.90;;;;;;4908279;29;20032;-82
2023/10/22 15:53:48;;;;;;;27.75;24.80;;;22.70;99.90;;;;;;4885888;29;20036;-83
2023/10/22 15:56:14;;;;;;;25.98;23.50;;;22.60;99.90;;;;;;4901935;29;20048;-82
2023/10/22 15:58:45;;;;;;;25.92;23.13;;;22.50;99.90;;;;;;4917599;29;20068;-82
2023/10/22 16:01:18;;;;;;;24.15;22.10;;;22.30;99.90;;;;;;4898713;29;20024;-86
2023/10/22 16:03:45;;;;;;;24.63;22.30;;;22.10;99.90;;;;;;4867728;29;20383;-83
2023/10/22 16:06:12;;;;;;;23.50;21.02;;;22.00;99.90;;;;;;4867629;29;20081;-82
2023/10/22 16:08:43;;;;;;;23.00;20.70;;;22.00;99.90;;;;;;4898740;29;20043;-83
2023/10/22 16:11:15;;;;;;;22.17;20.08;;;21.80;99.90;;;;;;4890852;29;20051;-84
2023/10/22 16:13:41;;;;;;;21.90;19.75;;;21.70;99.90;;;;;;4901838;29;20039;-84
2023/10/22 16:16:08;;;;;;;20.77;18.77;;;21.70;99.90;;;;;;4902095;29;20386;-86
2023/10/22 16:18:35;;;;;;;21.17;19.02;;;21.60;99.90;;;;;;4918775;29;20442;-83
2023/10/22 16:21:02;;;;;;;25.73;19.65;;;21.50;99.90;;;;;;4918282;29;20071;-84
2023/10/22 16:23:29;;;;;;;20.90;18.42;;;21.50;99.90;;;;;;4901645;29;20398;-82
2023/10/22 16:25:55;;;;;;;24.17;18.15;;;21.40;99.90;;;;;;4901642;29;20066;-83
2023/10/22 16:28:23;;;;;;;20.25;18.10;;;21.30;99.90;;;;;;4901313;29;20464;-82
2023/10/22 16:30:51;;;;;;;20.02;17.88;;;21.20;99.90;;;;;;4898423;29;20021;-82
2023/10/22 16:33:19;;;;;;;20.02;17.83;;;21.10;99.90;;;;;;4901257;29;20359;-84
2023/10/22 16:35:45;;;;;;;18.90;16.90;;;21.10;99.90;;;;;;4901213;29;20132;-84
2023/10/22 16:38:13;;;;;;;19.50;16.92;;;21.00;99.90;;;;;;4901286;29;20126;-83
2023/10/22 16:40:40;;;;;;;18.08;16.30;;;21.00;99.90;;;;;;4897727;29;20020;-82
2023/10/22 16:43:08;;;;;;;17.30;15.70;;;21.00;99.90;;;;;;4899312;29;20036;-82
2023/10/22 16:45:37;;;;;;;24.45;16.60;;;20.90;99.90;;;;;;4882428;29;20481;-81
2023/10/22 16:48:03;;;;;;;23.88;15.65;;;20.90;99.90;;;;;;4899564;29;20028;-85
2023/10/22 16:50:30;;;;;;;21.35;15.38;;;20.90;99.90;;;;;;4885412;29;20123;-87
2023/10/22 16:52:57;;;;;;;20.45;16.02;;;20.90;99.90;;;;;;4903138;29;20138;-89
2023/10/22 16:55:23;;;;;;;17.20;15.40;;;20.90;99.90;;;;;;4902653;29;20490;-88
2023/10/22 16:57:50;;;;;;;25.23;15.57;;;20.80;99.90;;;;;;4902239;29;20032;-87
2023/10/22 17:00:17;;;;;;;20.80;14.82;;;20.80;99.90;;;;;;4902542;29;20028;-86
2023/10/22 17:02:45;;;;;;;22.95;15.95;;;20.70;99.90;;;;;;4883982;29;20044;-88
2023/10/22 17:05:12;;;;;;;23.17;15.77;;;20.70;99.90;;;;;;4882401;29;20036;-88
2023/10/22 17:07:39;;;;;;;21.50;15.52;;;20.60;99.90;;;;;;4883254;29;20028;-88
2023/10/22 17:10:09;;;;;;;19.60;15.57;;;20.50;99.90;;;;;;4883902;29;20103;-87
2023/10/22 17:12:35;;;;;;;24.35;15.77;;;20.50;99.90;;;;;;4884150;29;20244;-87
2023/10/22 17:15:01;;;;;;;19.92;15.13;;;20.60;99.90;;;;;;4883193;29;20032;-87
2023/10/22 17:17:29;;;;;;;29.67;16.00;;;20.60;99.90;;;;;;4883774;29;20084;-88
2023/10/22 17:19:56;;;;;;;23.98;15.60;;;20.60;99.90;;;;;;4882630;29;20139;-88
2023/10/22 17:22:22;;;;;;;27.02;16.30;;;20.60;99.90;;;;;;4867316;29;20037;-88
2023/10/22 17:24:49;;;;;;;22.83;15.38;;;20.50;99.90;;;;;;4883174;29;20104;-91
2023/10/22 17:27:15;;;;;;;20.40;15.43;;;20.40;99.90;;;;;;4877055;29;20031;-92
2023/10/22 17:29:41;;;;;;;20.05;14.45;;;20.30;99.90;;;;;;4901835;29;20060;-89
2023/10/22 17:32:07;;;;;;;17.90;14.00;;;20.20;99.90;;;;;;4901592;29;20031;-89
2023/10/22 17:34:37;;;;;;;22.45;15.68;;;20.00;99.90;;;;;;4901444;29;20032;-89
2023/10/22 17:37:04;;;;;;;23.75;15.27;;;19.90;99.90;;;;;;4901599;29;20114;-89
2023/10/22 17:39:30;;;;;;;28.02;17.30;;;19.80;99.90;;;;;;4901358;29;20051;-86
2023/10/22 17:41:57;;;;;;;25.83;16.52;;;19.70;99.90;;;;;;4901223;29;20470;-87
2023/10/22 17:44:23;;;;;;;36.95;17.50;;;19.60;99.90;;;;;;4901101;29;20064;-86
2023/10/22 17:46:50;;;;;;;34.90;16.75;;;19.50;99.90;;;;;;4900701;29;20028;-87
2023/10/22 17:49:16;;;;;;;31.73;16.15;;;19.40;99.90;;;;;;4901210;29;20040;-86
2023/10/22 17:51:43;;;;;;;26.30;15.55;;;19.40;99.90;;;;;;4901154;29;20030;-87
2023/10/22 17:54:12;;;;;;;26.80;15.30;;;19.40;99.90;;;;;;4901259;29;20039;-86
2023/10/22 17:56:38;;;;;;;30.42;15.15;;;19.40;99.90;;;;;;4901058;29;20032;-88
2023/10/22 17:59:05;;;;;;;35.60;14.85;;;19.40;99.90;;;;;;4901032;29;20036;-87
2023/10/22 18:01:33;;;;;;;26.08;15.77;;;19.30;99.90;;;;;;4900823;29;20389;-87
2023/10/22 18:04:00;;;;;;;39.38;17.00;;;19.30;99.90;;;;;;4901105;29;20035;-85
2023/10/22 18:06:29;;;;;;;38.13;16.92;;;19.20;99.90;;;;;;4900549;29;20034;-85
2023/10/22 18:08:56;;;;;;;32.10;17.27;;;19.20;99.90;;;;;;4900650;29;20028;-85
2023/10/22 18:11:24;;;;;;;40.63;17.27;;;19.20;99.90;;;;;;4900815;29;20035;-86
2023/10/22 18:13:51;;;;;;;31.92;16.98;;;19.20;99.90;;;;;;4900427;29;20055;-86
2023/10/22 18:16:19;;;;;;;34.70;16.15;;;19.10;99.90;;;;;;4901715;29;20060;-86
2023/10/22 18:18:46;;;;;;;41.72;17.05;;;19.10;99.90;;;;;;4904530;29;20057;-86
2023/10/22 18:21:12;;;;;;;28.45;15.43;;;19.10;99.90;;;;;;4904234;29;20089;-86
2023/10/22 18:23:39;;;;;;;38.78;16.63;;;19.00;99.90;;;;;;4888992;29;20044;-85
2023/10/22 18:26:06;;;;;;;35.13;15.45;;;18.90;99.90;;;;;;4888973;29;20031;-85
2023/10/22 18:28:33;;;;;;;29.17;14.50;;;18.90;99.90;;;;;;4888705;29;20032;-86
2023/10/22 18:31:00;;;;;;;18.73;10.40;;;19.00;99.90;;;;;;4903728;29;20517;-86
2023/10/22 18:33:27;;;;;;;22.13;10.93;;;19.00;99.90;;;;;;4888993;29;20069;-85
2023/10/22 18:35:54;;;;;;;21.23;11.85;;;19.10;99.90;;;;;;4904339;29;20051;-85
2023/10/22 18:38:21;;;;;;;26.60;11.80;;;19.10;99.90;;;;;;4904230;29;20035;-86
2023/10/22 18:40:49;;;;;;;22.77;12.77;;;19.10;99.90;;;;;;4903981;29;20028;-85
2023/10/22 18:43:16;;;;;;;28.63;12.05;;;19.00;99.90;;;;;;4888467;29;20115;-85
2023/10/22 18:45:51;;;;;;;18.52;10.50;;;19.00;99.90;;;;;;4904671;29;20028;-86
2023/10/22 18:48:17;;;;;;;19.05;10.05;;;18.90;99.90;;;;;;4888501;29;20060;-87
2023/10/22 18:50:43;;;;;;;27.45;11.10;;;18.80;99.90;;;;;;4903667;29;20024;-85
2023/10/22 18:53:10;;;;;;;16.33;8.80;;;18.80;99.90;;;;;;4904089;29;20032;-87
2023/10/22 18:55:37;;;;;;;19.90;10.68;;;18.70;99.90;;;;;;4903731;29;20478;-82
2023/10/22 18:58:04;;;;;;;14.95;9.85;;;18.70;99.90;;;;;;4920578;29;20460;-85
2023/10/22 19:00:30;;;;;;;26.38;10.10;;;18.50;99.90;;;;;;4903131;29;20035;-83
2023/10/22 19:02:57;;;;;;;24.75;10.15;;;18.50;99.90;;;;;;4884553;29;20490;-87
2023/10/22 19:05:23;;;;;;;25.67;10.35;;;18.40;99.90;;;;;;4885040;29;20085;-87
2023/10/22 19:07:49;;;;;;;29.92;10.80;;;18.40;99.90;;;;;;4885085;29;20028;-87
2023/10/22 19:10:17;;;;;;;23.25;10.30;;;18.40;99.90;;;;;;4884718;29;20056;-84
2023/10/22 19:12:43;;;;;;;21.23;10.07;;;18.40;99.90;;;;;;4902259;29;20028;-87
2023/10/22 19:15:10;;;;;;;22.13;8.55;;;18.40;99.90;;;;;;4904103;29;20586;-89
2023/10/22 19:17:38;;;;;;;16.65;8.35;;;18.40;99.90;;;;;;4906104;29;20418;-88
2023/10/22 19:20:08;;;;;;;25.02;9.40;;;18.30;99.90;;;;;;4879523;29;20080;-84
2023/10/22 19:22:35;;;;;;;21.73;9.70;;;18.30;99.90;;;;;;4866276;29;20052;-87
2023/10/22 19:25:03;;;;;;;19.92;8.65;;;18.20;99.90;;;;;;4882142;29;20045;-88
2023/10/22 19:27:29;;;;;;;16.90;8.48;;;18.20;99.90;;;;;;4897281;29;20029;-87
2023/10/22 19:29:56;;;;;;;19.27;8.63;;;18.10;99.90;;;;;;4881148;29;20391;-87
2023/10/22 19:32:22;;;;;;;20.55;8.55;;;18.10;99.90;;;;;;4881529;29;20061;-85
2023/10/22 19:34:48;;;;;;;21.52;9.10;;;18.10;99.90;;;;;;4881812;29;20025;-86
2023/10/22 19:37:15;;;;;;;17.92;8.55;;;18.10;99.90;;;;;;4881555;29;20028;-86
2023/10/22 19:39:44;;;;;;;20.88;8.50;;;18.10;99.90;;;;;;4881468;29;20467;-87
2023/10/22 19:42:11;;;;;;;22.23;8.65;;;18.20;99.90;;;;;;4881516;29;20514;-83
2023/10/22 19:44:37;;;;;;;18.67;8.50;;;18.20;99.90;;;;;;4896572;29;20033;-85
2023/10/22 19:47:04;;;;;;;20.95;7.07;;;18.30;99.90;;;;;;4881459;29;20070;-85
2023/10/22 19:49:33;;;;;;;19.40;7.68;;;18.30;99.90;;;;;;4896284;29;20487;-84
2023/10/22 19:52:00;;;;;;;25.98;7.38;;;18.40;99.90;;;;;;4872763;29;20557;-85
2023/10/22 19:54:26;;;;;;;12.30;6.55;;;18.40;99.90;;;;;;4880795;29;20116;-84